createdAt,value
2022-12-01T07:11:09.153Z,99708.63
2022-12-01T07:31:11.080Z,99709.34
2022-12-01T07:51:13.053Z,99719.19
2022-12-01T08:11:15.313Z,99719.94
2022-12-01T08:31:17.180Z,99752.78
2022-12-01T08:51:19.159Z,99756.38
2022-12-01T09:11:21.118Z,99759.44
2022-12-01T09:31:23.605Z,99754.38
2022-12-01T09:51:25.648Z,99741.88
2022-12-01T10:11:27.432Z,99729.81
2022-12-01T10:31:29.808Z,99702.22
2022-12-01T10:51:31.822Z,99709.50
2022-12-01T11:11:33.510Z,99678.59
2022-12-01T11:31:35.744Z,99668.84
2022-12-01T11:51:37.724Z,99666.03
2022-12-01T12:11:39.435Z,99662.34
2022-12-01T12:31:41.886Z,99649.81
2022-12-01T12:51:43.339Z,99627.97
2022-12-01T13:11:45.309Z,99620.19
2022-12-01T13:31:47.550Z,99613.69
2022-12-01T13:51:49.499Z,99613.41
2022-12-01T14:11:51.133Z,99600.66
2022-12-01T14:31:53.890Z,99599.06
2022-12-01T14:51:56.460Z,99600.16
2022-12-01T15:11:58.384Z,99590.94
2022-12-01T15:32:00.405Z,99583.78
2022-12-01T15:52:02.393Z,99590.50
2022-12-01T16:12:14.600Z,99590.19
2022-12-01T16:32:27.140Z,99604.03
2022-12-01T16:52:47.233Z,99601.81
2022-12-01T17:12:49.982Z,99609.97
2022-12-01T17:33:06.258Z,99616.06
2022-12-01T17:53:11.707Z,99617.19
2022-12-01T18:14:03.149Z,99613.59
2022-12-01T18:33:51.703Z,99613.13
2022-12-01T18:54:01.705Z,99620.50
2022-12-01T19:14:30.733Z,99614.16
2022-12-01T19:38:00.926Z,99623.81
2022-12-01T19:55:10.149Z,99631.91
2022-12-01T20:35:54.337Z,99640.03
2022-12-01T21:16:55.404Z,99626.88
2022-12-01T21:36:57.608Z,99629.19
2022-12-01T21:56:59.711Z,99633.53
2022-12-01T22:17:01.564Z,99630.72
2022-12-01T22:37:03.974Z,99626.91
2022-12-01T22:57:05.666Z,99617.53
2022-12-01T23:17:07.739Z,99606.75
2022-12-01T23:37:09.231Z,99594.13
2022-12-01T23:57:11.533Z,99585.59
